sensor_id;sensor_type;location;lat;lon;timestamp;P1;durP1;ratioP1;P2;durP2;ratioP2
48524;SDS011;34316;51.514;-0.178;2022-11-02T00:01:07;21.30;;;12.68;;
48524;SDS011;34316;51.514;-0.178;2022-11-02T00:03:23;25.27;;;13.45;;
48524;SDS011;34316;51.514;-0.178;2022-11-02T00:05:25;27.15;;;11.20;;
48524;SDS011;34316;51.514;-0.178;2022-11-02T00:07:27;19.25;;;11.95;;
48524;SDS011;34316;51.514;-0.178;2022-11-02T00:09:28;24.42;;;13.50;;
48524;SDS011;34316;51.514;-0.178;2022-11-02T00:11:30;25.30;;;12.40;;
48524;SDS011;34316;51.514;-0.178;2022-11-02T00:13:32;27.13;;;13.65;;
48524;SDS011;34316;51.514;-0.178;2022-11-02T00:15:33;26.88;;;13.55;;
48524;SDS011;34316;51.514;-0.178;2022-11-02T00:17:36;24.25;;;12.68;;
48524;SDS011;34316;51.514;-0.178;2022-11-02T00:19:39;22.02;;;11.98;;
48524;SDS011;34316;51.514;-0.178;2022-11-02T00:21:40;22.52;;;13.65;;
48524;SDS011;34316;51.514;-0.178;2022-11-02T00:23:42;22.48;;;12.88;;
48524;SDS011;34316;51.514;-0.178;2022-11-02T00:25:45;27.23;;;13.00;;
48524;SDS011;34316;51.514;-0.178;2022-11-02T00:29:49;25.42;;;14.65;;
48524;SDS011;34316;51.514;-0.178;2022-11-02T00:31:51;22.63;;;13.23;;
48524;SDS011;34316;51.514;-0.178;2022-11-02T00:33:53;23.48;;;13.52;;
48524;SDS011;34316;51.514;-0.178;2022-11-02T00:35:54;21.83;;;12.57;;
48524;SDS011;34316;51.514;-0.178;2022-11-02T00:37:56;22.42;;;13.43;;
48524;SDS011;34316;51.514;-0.178;2022-11-02T00:39:58;25.27;;;14.68;;
48524;SDS011;34316;51.514;-0.178;2022-11-02T00:41:59;32.72;;;17.80;;
48524;SDS011;34316;51.514;-0.178;2022-11-02T00:44:01;25.48;;;15.00;;
48524;SDS011;34316;51.514;-0.178;2022-11-02T00:46:03;24.00;;;12.98;;
48524;SDS011;34316;51.514;-0.178;2022-11-02T00:48:05;29.90;;;14.10;;
48524;SDS011;34316;51.514;-0.178;2022-11-02T00:50:07;24.48;;;13.00;;
48524;SDS011;34316;51.514;-0.178;2022-11-02T00:52:09;24.42;;;12.20;;
48524;SDS011;34316;51.514;-0.178;2022-11-02T00:54:11;25.17;;;13.23;;
48524;SDS011;34316;51.514;-0.178;2022-11-02T00:56:12;24.73;;;13.82;;
48524;SDS011;34316;51.514;-0.178;2022-11-02T00:58:14;25.17;;;14.18;;
48524;SDS011;34316;51.514;-0.178;2022-11-02T01:00:16;24.10;;;16.33;;
48524;SDS011;34316;51.514;-0.178;2022-11-02T01:02:18;24.98;;;15.85;;
48524;SDS011;34316;51.514;-0.178;2022-11-02T01:04:20;24.05;;;14.63;;
48524;SDS011;34316;51.514;-0.178;2022-11-02T01:06:22;27.33;;;13.55;;
48524;SDS011;34316;51.514;-0.178;2022-11-02T01:08:24;21.40;;;13.57;;
48524;SDS011;34316;51.514;-0.178;2022-11-02T01:10:25;22.67;;;11.30;;
48524;SDS011;34316;51.514;-0.178;2022-11-02T01:12:27;19.10;;;10.68;;
48524;SDS011;34316;51.514;-0.178;2022-11-02T01:14:29;21.45;;;11.43;;
48524;SDS011;34316;51.514;-0.178;2022-11-02T01:16:30;20.45;;;10.93;;
48524;SDS011;34316;51.514;-0.178;2022-11-02T01:18:33;21.17;;;10.73;;
48524;SDS011;34316;51.514;-0.178;2022-11-02T01:20:35;20.67;;;10.38;;
48524;SDS011;34316;51.514;-0.178;2022-11-02T01:22:37;18.80;;;9.60;;
48524;SDS011;34316;51.514;-0.178;2022-11-02T01:24:39;19.98;;;10.07;;
48524;SDS011;34316;51.514;-0.178;2022-11-02T01:26:40;20.88;;;11.13;;
48524;SDS011;34316;51.514;-0.178;2022-11-02T01:28:42;26.30;;;11.50;;
48524;SDS011;34316;51.514;-0.178;2022-11-02T01:30:45;20.15;;;10.88;;
48524;SDS011;34316;51.514;-0.178;2022-11-02T01:32:48;21.20;;;11.07;;
48524;SDS011;34316;51.514;-0.178;2022-11-02T01:34:50;19.02;;;11.52;;
48524;SDS011;34316;51.514;-0.178;2022-11-02T01:36:51;19.60;;;10.18;;
48524;SDS011;34316;51.514;-0.178;2022-11-02T01:38:54;19.83;;;9.82;;
48524;SDS011;34316;51.514;-0.178;2022-11-02T01:40:56;19.10;;;10.32;;
48524;SDS011;34316;51.514;-0.178;2022-11-02T01:42:57;18.02;;;10.73;;
48524;SDS011;34316;51.514;-0.178;2022-11-02T01:44:59;22.92;;;10.15;;
48524;SDS011;34316;51.514;-0.178;2022-11-02T01:47:07;18.95;;;10.00;;
48524;SDS011;34316;51.514;-0.178;2022-11-02T01:49:20;37.33;;;26.80;;
48524;SDS011;34316;51.514;-0.178;2022-11-02T01:51:25;33.30;;;22.85;;
48524;SDS011;34316;51.514;-0.178;2022-11-02T01:53:30;34.58;;;21.92;;
48524;SDS011;34316;51.514;-0.178;2022-11-02T01:57:35;32.75;;;21.45;;
48524;SDS011;34316;51.514;-0.178;2022-11-02T01:59:52;37.20;;;22.08;;
48524;SDS011;34316;51.514;-0.178;2022-11-02T02:01:57;32.33;;;19.38;;
48524;SDS011;34316;51.514;-0.178;2022-11-02T02:03:59;33.28;;;19.80;;
48524;SDS011;34316;51.514;-0.178;2022-11-02T02:06:03;35.55;;;18.33;;
48524;SDS011;34316;51.514;-0.178;2022-11-02T02:08:07;33.05;;;20.33;;
48524;SDS011;34316;51.514;-0.178;2022-11-02T02:10:10;31.57;;;17.87;;
48524;SDS011;34316;51.514;-0.178;2022-11-02T02:12:12;29.08;;;18.35;;
48524;SDS011;34316;51.514;-0.178;2022-11-02T02:14:14;29.75;;;16.13;;
48524;SDS011;34316;51.514;-0.178;2022-11-02T02:16:19;25.25;;;16.05;;
48524;SDS011;34316;51.514;-0.178;2022-11-02T02:18:39;26.42;;;13.30;;
48524;SDS011;34316;51.514;-0.178;2022-11-02T02:21:12;20.33;;;11.48;;
48524;SDS011;34316;51.514;-0.178;2022-11-02T02:30:28;26.38;;;16.80;;
48524;SDS011;34316;51.514;-0.178;2022-11-02T02:32:35;21.70;;;14.25;;
48524;SDS011;34316;51.514;-0.178;2022-11-02T02:34:40;26.73;;;12.15;;
48524;SDS011;34316;51.514;-0.178;2022-11-02T02:37:13;18.60;;;11.20;;
48524;SDS011;34316;51.514;-0.178;2022-11-02T02:39:54;19.50;;;12.07;;
48524;SDS011;34316;51.514;-0.178;2022-11-02T02:42:18;22.25;;;12.02;;
48524;SDS011;34316;51.514;-0.178;2022-11-02T02:44:22;22.52;;;11.38;;
48524;SDS011;34316;51.514;-0.178;2022-11-02T02:48:25;21.83;;;11.85;;
48524;SDS011;34316;51.514;-0.178;2022-11-02T02:51:10;23.48;;;11.10;;
48524;SDS011;34316;51.514;-0.178;2022-11-02T02:52:53;21.40;;;12.07;;
48524;SDS011;34316;51.514;-0.178;2022-11-02T02:54:57;26.75;;;13.30;;
48524;SDS011;34316;51.514;-0.178;2022-11-02T02:57:00;23.13;;;13.32;;
48524;SDS011;34316;51.514;-0.178;2022-11-02T02:59:43;24.27;;;12.63;;
48524;SDS011;34316;51.514;-0.178;2022-11-02T03:01:44;27.73;;;13.20;;
48524;SDS011;34316;51.514;-0.178;2022-11-02T03:03:46;20.25;;;10.65;;
48524;SDS011;34316;51.514;-0.178;2022-11-02T03:06:00;19.75;;;12.18;;
48524;SDS011;34316;51.514;-0.178;2022-11-02T03:08:09;23.67;;;13.57;;
48524;SDS011;34316;51.514;-0.178;2022-11-02T03:10:32;24.67;;;13.45;;
48524;SDS011;34316;51.514;-0.178;2022-11-02T03:19:16;21.15;;;11.15;;
48524;SDS011;34316;51.514;-0.178;2022-11-02T03:21:29;23.02;;;12.75;;
48524;SDS011;34316;51.514;-0.178;2022-11-02T03:23:37;25.98;;;14.32;;
48524;SDS011;34316;51.514;-0.178;2022-11-02T03:25:58;27.60;;;13.48;;
48524;SDS011;34316;51.514;-0.178;2022-11-02T03:30:30;27.27;;;13.23;;
48524;SDS011;34316;51.514;-0.178;2022-11-02T03:32:35;21.45;;;12.50;;
48524;SDS011;34316;51.514;-0.178;2022-11-02T03:34:46;23.65;;;12.25;;
48524;SDS011;34316;51.514;-0.178;2022-11-02T03:37:10;20.10;;;12.05;;
48524;SDS011;34316;51.514;-0.178;2022-11-02T03:39:16;25.73;;;12.40;;
48524;SDS011;34316;51.514;-0.178;2022-11-02T03:41:21;20.92;;;12.00;;
48524;SDS011;34316;51.514;-0.178;2022-11-02T03:43:23;23.42;;;12.35;;
48524;SDS011;34316;51.514;-0.178;2022-11-02T03:45:26;26.08;;;12.23;;
48524;SDS011;34316;51.514;-0.178;2022-11-02T03:47:30;26.08;;;12.63;;
48524;SDS011;34316;51.514;-0.178;2022-11-02T03:49:34;25.33;;;13.52;;
48524;SDS011;34316;51.514;-0.178;2022-11-02T03:51:36;30.75;;;13.82;;
48524;SDS011;34316;51.514;-0.178;2022-11-02T03:56:20;24.40;;;12.45;;
48524;SDS011;34316;51.514;-0.178;2022-11-02T03:58:26;26.42;;;12.95;;
48524;SDS011;34316;51.514;-0.178;2022-11-02T04:00:28;29.15;;;13.40;;
48524;SDS011;34316;51.514;-0.178;2022-11-02T04:02:35;35.45;;;14.77;;
48524;SDS011;34316;51.514;-0.178;2022-11-02T04:04:50;29.13;;;15.27;;
48524;SDS011;34316;51.514;-0.178;2022-11-02T04:06:53;29.80;;;15.15;;
48524;SDS011;34316;51.514;-0.178;2022-11-02T04:08:55;37.15;;;21.17;;
48524;SDS011;34316;51.514;-0.178;2022-11-02T04:10:56;44.10;;;26.48;;
48524;SDS011;34316;51.514;-0.178;2022-11-02T04:13:17;37.75;;;29.45;;
48524;SDS011;34316;51.514;-0.178;2022-11-02T04:15:37;44.70;;;28.75;;
48524;SDS011;34316;51.514;-0.178;2022-11-02T04:17:39;32.25;;;23.73;;
48524;SDS011;34316;51.514;-0.178;2022-11-02T04:19:59;36.10;;;23.05;;
48524;SDS011;34316;51.514;-0.178;2022-11-02T04:22:01;39.42;;;18.23;;
48524;SDS011;34316;51.514;-0.178;2022-11-02T04:24:21;33.47;;;15.43;;
48524;SDS011;34316;51.514;-0.178;2022-11-02T04:26:41;28.33;;;13.45;;
48524;SDS011;34316;51.514;-0.178;2022-11-02T04:28:43;26.90;;;13.63;;
48524;SDS011;34316;51.514;-0.178;2022-11-02T04:30:44;33.67;;;14.27;;
48524;SDS011;34316;51.514;-0.178;2022-11-02T04:32:47;29.67;;;14.43;;
48524;SDS011;34316;51.514;-0.178;2022-11-02T04:35:09;37.45;;;13.75;;
48524;SDS011;34316;51.514;-0.178;2022-11-02T04:37:10;30.10;;;13.65;;
48524;SDS011;34316;51.514;-0.178;2022-11-02T04:39:35;24.67;;;12.48;;
48524;SDS011;34316;51.514;-0.178;2022-11-02T04:41:37;30.83;;;13.10;;
48524;SDS011;34316;51.514;-0.178;2022-11-02T04:43:42;26.45;;;13.65;;
48524;SDS011;34316;51.514;-0.178;2022-11-02T04:45:44;21.55;;;12.88;;
48524;SDS011;34316;51.514;-0.178;2022-11-02T04:47:46;30.80;;;13.80;;
48524;SDS011;34316;51.514;-0.178;2022-11-02T04:49:47;26.33;;;13.55;;
48524;SDS011;34316;51.514;-0.178;2022-11-02T04:51:49;33.10;;;14.60;;
48524;SDS011;34316;51.514;-0.178;2022-11-02T04:53:51;27.23;;;14.02;;
48524;SDS011;34316;51.514;-0.178;2022-11-02T04:55:54;26.95;;;13.80;;
48524;SDS011;34316;51.514;-0.178;2022-11-02T04:57:56;34.97;;;14.98;;
48524;SDS011;34316;51.514;-0.178;2022-11-02T04:59:57;28.27;;;13.75;;
48524;SDS011;34316;51.514;-0.178;2022-11-02T05:01:59;29.67;;;14.90;;
48524;SDS011;34316;51.514;-0.178;2022-11-02T05:04:01;31.83;;;15.25;;
48524;SDS011;34316;51.514;-0.178;2022-11-02T05:06:02;38.65;;;15.25;;
48524;SDS011;34316;51.514;-0.178;2022-11-02T05:08:04;36.20;;;15.07;;
48524;SDS011;34316;51.514;-0.178;2022-11-02T05:10:07;35.83;;;13.85;;
48524;SDS011;34316;51.514;-0.178;2022-11-02T05:12:09;29.73;;;14.68;;
48524;SDS011;34316;51.514;-0.178;2022-11-02T05:14:11;27.88;;;14.18;;
48524;SDS011;34316;51.514;-0.178;2022-11-02T05:16:13;29.38;;;14.60;;
48524;SDS011;34316;51.514;-0.178;2022-11-02T05:18:16;30.02;;;14.27;;
48524;SDS011;34316;51.514;-0.178;2022-11-02T05:20:19;31.45;;;14.40;;
48524;SDS011;34316;51.514;-0.178;2022-11-02T05:22:21;30.05;;;14.48;;
48524;SDS011;34316;51.514;-0.178;2022-11-02T05:24:22;31.65;;;14.48;;
48524;SDS011;34316;51.514;-0.178;2022-11-02T05:26:24;24.52;;;14.18;;
48524;SDS011;34316;51.514;-0.178;2022-11-02T05:28:26;24.60;;;14.93;;
48524;SDS011;34316;51.514;-0.178;2022-11-02T05:30:28;34.60;;;16.52;;
48524;SDS011;34316;51.514;-0.178;2022-11-02T05:32:30;39.28;;;16.30;;
48524;SDS011;34316;51.514;-0.178;2022-11-02T05:34:32;36.25;;;16.17;;
48524;SDS011;34316;51.514;-0.178;2022-11-02T05:36:34;30.73;;;16.58;;
48524;SDS011;34316;51.514;-0.178;2022-11-02T05:38:35;31.48;;;15.90;;
48524;SDS011;34316;51.514;-0.178;2022-11-02T05:40:37;33.88;;;15.45;;
48524;SDS011;34316;51.514;-0.178;2022-11-02T05:42:41;27.92;;;14.07;;
48524;SDS011;34316;51.514;-0.178;2022-11-02T05:44:42;28.33;;;16.20;;
48524;SDS011;34316;51.514;-0.178;2022-11-02T05:46:44;30.35;;;14.65;;
48524;SDS011;34316;51.514;-0.178;2022-11-02T05:48:46;30.33;;;15.27;;
48524;SDS011;34316;51.514;-0.178;2022-11-02T05:50:47;37.25;;;16.70;;
48524;SDS011;34316;51.514;-0.178;2022-11-02T05:52:49;30.95;;;17.27;;
48524;SDS011;34316;51.514;-0.178;2022-11-02T05:54:51;35.90;;;16.13;;
48524;SDS011;34316;51.514;-0.178;2022-11-02T05:56:52;42.80;;;16.80;;
48524;SDS011;34316;51.514;-0.178;2022-11-02T05:58:54;41.60;;;16.42;;
48524;SDS011;34316;51.514;-0.178;2022-11-02T06:00:59;36.10;;;16.33;;
48524;SDS011;34316;51.514;-0.178;2022-11-02T06:03:02;38.20;;;16.45;;
48524;SDS011;34316;51.514;-0.178;2022-11-02T06:05:04;35.63;;;16.27;;
48524;SDS011;34316;51.514;-0.178;2022-11-02T06:07:06;35.25;;;16.52;;
48524;SDS011;34316;51.514;-0.178;2022-11-02T06:09:08;33.75;;;15.68;;
48524;SDS011;34316;51.514;-0.178;2022-11-02T06:11:10;41.53;;;16.52;;
48524;SDS011;34316;51.514;-0.178;2022-11-02T06:13:12;49.15;;;17.83;;
48524;SDS011;34316;51.514;-0.178;2022-11-02T06:15:14;35.28;;;16.98;;
48524;SDS011;34316;51.514;-0.178;2022-11-02T06:17:16;31.88;;;16.63;;
48524;SDS011;34316;51.514;-0.178;2022-11-02T06:19:18;37.38;;;16.17;;
48524;SDS011;34316;51.514;-0.178;2022-11-02T06:21:19;41.00;;;17.02;;
48524;SDS011;34316;51.514;-0.178;2022-11-02T06:23:21;32.85;;;15.30;;
48524;SDS011;34316;51.514;-0.178;2022-11-02T06:25:23;41.72;;;17.30;;
48524;SDS011;34316;51.514;-0.178;2022-11-02T06:27:24;34.95;;;16.33;;
48524;SDS011;34316;51.514;-0.178;2022-11-02T06:29:26;40.03;;;16.90;;
48524;SDS011;34316;51.514;-0.178;2022-11-02T06:31:28;29.95;;;15.88;;
48524;SDS011;34316;51.514;-0.178;2022-11-02T06:33:29;40.83;;;15.07;;
48524;SDS011;34316;51.514;-0.178;2022-11-02T06:35:31;41.58;;;15.25;;
48524;SDS011;34316;51.514;-0.178;2022-11-02T06:37:33;31.20;;;16.23;;
48524;SDS011;34316;51.514;-0.178;2022-11-02T06:39:35;27.60;;;15.18;;
48524;SDS011;34316;51.514;-0.178;2022-11-02T06:41:41;32.90;;;15.80;;
48524;SDS011;34316;51.514;-0.178;2022-11-02T06:43:43;40.08;;;17.83;;
48524;SDS011;34316;51.514;-0.178;2022-11-02T06:45:44;34.47;;;16.88;;
48524;SDS011;34316;51.514;-0.178;2022-11-02T06:47:47;36.85;;;16.90;;
48524;SDS011;34316;51.514;-0.178;2022-11-02T06:49:49;31.33;;;15.98;;
48524;SDS011;34316;51.514;-0.178;2022-11-02T06:51:52;28.77;;;15.53;;
48524;SDS011;34316;51.514;-0.178;2022-11-02T06:53:54;27.33;;;15.68;;
48524;SDS011;34316;51.514;-0.178;2022-11-02T06:55:56;34.28;;;15.63;;
48524;SDS011;34316;51.514;-0.178;2022-11-02T06:57:58;30.23;;;15.33;;
48524;SDS011;34316;51.514;-0.178;2022-11-02T07:00:00;32.40;;;16.95;;
48524;SDS011;34316;51.514;-0.178;2022-11-02T07:02:05;28.55;;;15.95;;
48524;SDS011;34316;51.514;-0.178;2022-11-02T07:04:07;34.97;;;16.45;;
48524;SDS011;34316;51.514;-0.178;2022-11-02T07:06:08;42.20;;;16.85;;
48524;SDS011;34316;51.514;-0.178;2022-11-02T07:08:14;42.33;;;17.58;;
48524;SDS011;34316;51.514;-0.178;2022-11-02T07:10:16;41.40;;;17.42;;
48524;SDS011;34316;51.514;-0.178;2022-11-02T07:12:18;37.00;;;16.70;;
48524;SDS011;34316;51.514;-0.178;2022-11-02T07:14:23;26.65;;;15.88;;
48524;SDS011;34316;51.514;-0.178;2022-11-02T07:16:25;39.97;;;17.30;;
48524;SDS011;34316;51.514;-0.178;2022-11-02T07:18:26;33.47;;;18.42;;
48524;SDS011;34316;51.514;-0.178;2022-11-02T07:20:28;29.35;;;16.90;;
48524;SDS011;34316;51.514;-0.178;2022-11-02T07:22:30;32.00;;;17.08;;
48524;SDS011;34316;51.514;-0.178;2022-11-02T07:24:32;35.47;;;17.27;;
48524;SDS011;34316;51.514;-0.178;2022-11-02T07:26:33;33.42;;;15.93;;
48524;SDS011;34316;51.514;-0.178;2022-11-02T07:28:36;28.42;;;15.07;;
48524;SDS011;34316;51.514;-0.178;2022-11-02T07:30:38;122.72;;;23.08;;
48524;SDS011;34316;51.514;-0.178;2022-11-02T07:32:40;43.53;;;18.00;;
48524;SDS011;34316;51.514;-0.178;2022-11-02T07:34:42;33.28;;;16.63;;
48524;SDS011;34316;51.514;-0.178;2022-11-02T07:36:44;35.47;;;16.83;;
48524;SDS011;34316;51.514;-0.178;2022-11-02T07:38:46;33.25;;;17.17;;
48524;SDS011;34316;51.514;-0.178;2022-11-02T07:40:48;37.03;;;18.60;;
48524;SDS011;34316;51.514;-0.178;2022-11-02T07:42:51;33.35;;;16.38;;
48524;SDS011;34316;51.514;-0.178;2022-11-02T07:44:54;32.13;;;16.38;;
48524;SDS011;34316;51.514;-0.178;2022-11-02T07:46:55;34.35;;;17.45;;
48524;SDS011;34316;51.514;-0.178;2022-11-02T07:48:57;30.75;;;17.58;;
48524;SDS011;34316;51.514;-0.178;2022-11-02T07:50:59;37.83;;;16.20;;
48524;SDS011;34316;51.514;-0.178;2022-11-02T07:53:01;35.78;;;17.40;;
48524;SDS011;34316;51.514;-0.178;2022-11-02T07:55:03;35.08;;;18.25;;
48524;SDS011;34316;51.514;-0.178;2022-11-02T07:57:05;39.15;;;18.33;;
48524;SDS011;34316;51.514;-0.178;2022-11-02T07:59:08;40.00;;;18.05;;
48524;SDS011;34316;51.514;-0.178;2022-11-02T08:01:10;35.25;;;18.33;;
48524;SDS011;34316;51.514;-0.178;2022-11-02T08:03:12;38.55;;;19.90;;
48524;SDS011;34316;51.514;-0.178;2022-11-02T08:05:15;40.50;;;19.05;;
48524;SDS011;34316;51.514;-0.178;2022-11-02T08:07:16;40.90;;;19.38;;
48524;SDS011;34316;51.514;-0.178;2022-11-02T08:09:18;32.30;;;18.30;;
48524;SDS011;34316;51.514;-0.178;2022-11-02T08:11:20;43.88;;;18.98;;
48524;SDS011;34316;51.514;-0.178;2022-11-02T08:13:22;36.22;;;19.25;;
48524;SDS011;34316;51.514;-0.178;2022-11-02T08:15:26;42.03;;;19.63;;
48524;SDS011;34316;51.514;-0.178;2022-11-02T08:17:27;37.83;;;18.70;;
48524;SDS011;34316;51.514;-0.178;2022-11-02T08:19:29;34.97;;;18.80;;
48524;SDS011;34316;51.514;-0.178;2022-11-02T08:21:31;35.05;;;19.63;;
48524;SDS011;34316;51.514;-0.178;2022-11-02T08:23:32;35.05;;;18.27;;
48524;SDS011;34316;51.514;-0.178;2022-11-02T08:25:35;34.20;;;17.85;;
48524;SDS011;34316;51.514;-0.178;2022-11-02T08:27:37;34.75;;;17.88;;
48524;SDS011;34316;51.514;-0.178;2022-11-02T08:29:39;31.70;;;19.00;;
48524;SDS011;34316;51.514;-0.178;2022-11-02T08:31:41;45.13;;;18.15;;
48524;SDS011;34316;51.514;-0.178;2022-11-02T08:33:43;37.90;;;18.00;;
48524;SDS011;34316;51.514;-0.178;2022-11-02T08:35:45;32.72;;;17.25;;
48524;SDS011;34316;51.514;-0.178;2022-11-02T08:37:54;33.38;;;17.88;;
48524;SDS011;34316;51.514;-0.178;2022-11-02T08:39:56;39.88;;;18.90;;
48524;SDS011;34316;51.514;-0.178;2022-11-02T08:41:57;35.35;;;18.38;;
48524;SDS011;34316;51.514;-0.178;2022-11-02T08:43:59;34.60;;;18.75;;
48524;SDS011;34316;51.514;-0.178;2022-11-02T08:46:01;29.13;;;17.70;;
48524;SDS011;34316;51.514;-0.178;2022-11-02T08:48:18;34.58;;;16.20;;
48524;SDS011;34316;51.514;-0.178;2022-11-02T08:50:20;31.95;;;16.92;;
48524;SDS011;34316;51.514;-0.178;2022-11-02T08:52:23;34.93;;;17.03;;
48524;SDS011;34316;51.514;-0.178;2022-11-02T08:54:25;32.95;;;18.70;;
48524;SDS011;34316;51.514;-0.178;2022-11-02T08:56:26;39.70;;;21.92;;
48524;SDS011;34316;51.514;-0.178;2022-11-02T08:58:28;128.35;;;72.10;;
48524;SDS011;34316;51.514;-0.178;2022-11-02T09:00:31;46.88;;;21.65;;
48524;SDS011;34316;51.514;-0.178;2022-11-02T09:02:33;39.97;;;21.08;;
48524;SDS011;34316;51.514;-0.178;2022-11-02T09:04:35;32.80;;;18.73;;
48524;SDS011;34316;51.514;-0.178;2022-11-02T09:06:37;38.92;;;18.83;;
48524;SDS011;34316;51.514;-0.178;2022-11-02T09:08:38;40.22;;;19.92;;
48524;SDS011;34316;51.514;-0.178;2022-11-02T09:10:40;40.53;;;18.80;;
48524;SDS011;34316;51.514;-0.178;2022-11-02T09:12:41;31.45;;;19.20;;
48524;SDS011;34316;51.514;-0.178;2022-11-02T09:14:43;41.10;;;20.20;;
48524;SDS011;34316;51.514;-0.178;2022-11-02T09:16:45;30.30;;;18.20;;
48524;SDS011;34316;51.514;-0.178;2022-11-02T09:18:46;35.58;;;19.80;;
48524;SDS011;34316;51.514;-0.178;2022-11-02T09:20:48;34.00;;;19.55;;
48524;SDS011;34316;51.514;-0.178;2022-11-02T09:22:51;45.40;;;21.42;;
48524;SDS011;34316;51.514;-0.178;2022-11-02T09:24:53;48.63;;;20.23;;
48524;SDS011;34316;51.514;-0.178;2022-11-02T09:26:54;36.38;;;18.30;;
48524;SDS011;34316;51.514;-0.178;2022-11-02T09:28:56;45.05;;;22.13;;
48524;SDS011;34316;51.514;-0.178;2022-11-02T09:30:58;44.88;;;19.95;;
48524;SDS011;34316;51.514;-0.178;2022-11-02T09:33:00;37.45;;;20.67;;
48524;SDS011;34316;51.514;-0.178;2022-11-02T09:35:05;31.88;;;18.88;;
48524;SDS011;34316;51.514;-0.178;2022-11-02T09:37:08;49.90;;;18.15;;
48524;SDS011;34316;51.514;-0.178;2022-11-02T09:39:10;37.95;;;18.50;;
48524;SDS011;34316;51.514;-0.178;2022-11-02T09:46:04;34.90;;;18.38;;
48524;SDS011;34316;51.514;-0.178;2022-11-02T09:48:11;32.53;;;17.65;;
48524;SDS011;34316;51.514;-0.178;2022-11-02T09:50:24;36.67;;;19.17;;
48524;SDS011;34316;51.514;-0.178;2022-11-02T09:52:35;37.47;;;18.00;;
48524;SDS011;34316;51.514;-0.178;2022-11-02T09:54:42;39.78;;;18.83;;
48524;SDS011;34316;51.514;-0.178;2022-11-02T09:56:46;38.17;;;18.15;;
48524;SDS011;34316;51.514;-0.178;2022-11-02T09:58:50;33.00;;;18.38;;
48524;SDS011;34316;51.514;-0.178;2022-11-02T10:00:56;42.83;;;17.70;;
48524;SDS011;34316;51.514;-0.178;2022-11-02T10:10:03;34.30;;;16.55;;
48524;SDS011;34316;51.514;-0.178;2022-11-02T10:14:23;36.70;;;16.75;;
48524;SDS011;34316;51.514;-0.178;2022-11-02T10:18:35;39.13;;;16.58;;
48524;SDS011;34316;51.514;-0.178;2022-11-02T10:20:39;30.95;;;16.52;;
48524;SDS011;34316;51.514;-0.178;2022-11-02T10:22:44;36.00;;;16.85;;
48524;SDS011;34316;51.514;-0.178;2022-11-02T10:24:48;41.97;;;17.55;;
48524;SDS011;34316;51.514;-0.178;2022-11-02T10:26:51;33.20;;;15.73;;
48524;SDS011;34316;51.514;-0.178;2022-11-02T10:29:00;38.13;;;16.20;;
48524;SDS011;34316;51.514;-0.178;2022-11-02T10:31:13;42.65;;;16.48;;
48524;SDS011;34316;51.514;-0.178;2022-11-02T10:33:28;37.75;;;17.00;;
48524;SDS011;34316;51.514;-0.178;2022-11-02T10:45:06;31.60;;;12.05;;
48524;SDS011;34316;51.514;-0.178;2022-11-02T10:47:17;28.40;;;9.77;;
48524;SDS011;34316;51.514;-0.178;2022-11-02T10:52:13;28.23;;;11.75;;
48524;SDS011;34316;51.514;-0.178;2022-11-02T10:54:16;26.27;;;9.98;;
48524;SDS011;34316;51.514;-0.178;2022-11-02T10:56:30;26.17;;;9.95;;
48524;SDS011;34316;51.514;-0.178;2022-11-02T10:58:32;27.63;;;9.23;;
48524;SDS011;34316;51.514;-0.178;2022-11-02T11:00:37;25.80;;;8.80;;
48524;SDS011;34316;51.514;-0.178;2022-11-02T11:02:39;21.35;;;7.50;;
48524;SDS011;34316;51.514;-0.178;2022-11-02T11:04:41;21.67;;;8.10;;
48524;SDS011;34316;51.514;-0.178;2022-11-02T11:06:43;19.90;;;6.50;;
48524;SDS011;34316;51.514;-0.178;2022-11-02T11:08:47;17.52;;;6.38;;
48524;SDS011;34316;51.514;-0.178;2022-11-02T11:10:53;11.48;;;4.88;;
48524;SDS011;34316;51.514;-0.178;2022-11-02T11:12:55;16.65;;;5.47;;
48524;SDS011;34316;51.514;-0.178;2022-11-02T11:15:00;11.43;;;5.07;;
48524;SDS011;34316;51.514;-0.178;2022-11-02T11:17:23;10.85;;;4.68;;
48524;SDS011;34316;51.514;-0.178;2022-11-02T11:19:49;17.60;;;5.07;;
48524;SDS011;34316;51.514;-0.178;2022-11-02T11:21:51;13.48;;;5.07;;
48524;SDS011;34316;51.514;-0.178;2022-11-02T11:24:00;16.30;;;4.65;;
48524;SDS011;34316;51.514;-0.178;2022-11-02T11:26:25;14.88;;;4.20;;
48524;SDS011;34316;51.514;-0.178;2022-11-02T11:28:29;13.18;;;4.30;;
48524;SDS011;34316;51.514;-0.178;2022-11-02T11:30:35;14.13;;;4.25;;
48524;SDS011;34316;51.514;-0.178;2022-11-02T11:32:59;13.35;;;4.00;;
48524;SDS011;34316;51.514;-0.178;2022-11-02T11:35:05;12.88;;;3.60;;
48524;SDS011;34316;51.514;-0.178;2022-11-02T11:37:12;12.30;;;3.85;;
48524;SDS011;34316;51.514;-0.178;2022-11-02T11:39:25;20.73;;;4.55;;
48524;SDS011;34316;51.514;-0.178;2022-11-02T11:41:28;18.15;;;3.88;;
48524;SDS011;34316;51.514;-0.178;2022-11-02T11:43:33;11.30;;;3.72;;
48524;SDS011;34316;51.514;-0.178;2022-11-02T11:45:38;11.43;;;4.05;;
48524;SDS011;34316;51.514;-0.178;2022-11-02T11:47:40;10.60;;;3.70;;
48524;SDS011;34316;51.514;-0.178;2022-11-02T11:49:46;20.88;;;4.60;;
48524;SDS011;34316;51.514;-0.178;2022-11-02T11:52:11;10.48;;;3.60;;
48524;SDS011;34316;51.514;-0.178;2022-11-02T11:56:29;12.48;;;3.78;;
48524;SDS011;34316;51.514;-0.178;2022-11-02T11:58:31;24.13;;;4.90;;
48524;SDS011;34316;51.514;-0.178;2022-11-02T12:00:34;14.50;;;4.95;;
48524;SDS011;34316;51.514;-0.178;2022-11-02T12:02:35;11.95;;;3.95;;
48524;SDS011;34316;51.514;-0.178;2022-11-02T12:04:44;15.23;;;4.43;;
48524;SDS011;34316;51.514;-0.178;2022-11-02T12:20:53;19.23;;;5.80;;
48524;SDS011;34316;51.514;-0.178;2022-11-02T12:39:33;18.75;;;4.78;;
48524;SDS011;34316;51.514;-0.178;2022-11-02T12:41:58;22.63;;;6.05;;
48524;SDS011;34316;51.514;-0.178;2022-11-02T12:44:05;15.52;;;5.35;;
48524;SDS011;34316;51.514;-0.178;2022-11-02T12:51:00;14.07;;;4.32;;
48524;SDS011;34316;51.514;-0.178;2022-11-02T12:55:23;16.33;;;4.18;;
48524;SDS011;34316;51.514;-0.178;2022-11-02T12:57:27;16.67;;;4.45;;
48524;SDS011;34316;51.514;-0.178;2022-11-02T12:59:32;20.63;;;4.45;;
48524;SDS011;34316;51.514;-0.178;2022-11-02T13:01:36;10.57;;;4.10;;
48524;SDS011;34316;51.514;-0.178;2022-11-02T13:06:23;12.23;;;3.60;;
48524;SDS011;34316;51.514;-0.178;2022-11-02T13:08:41;14.63;;;4.70;;
48524;SDS011;34316;51.514;-0.178;2022-11-02T13:10:51;14.45;;;4.88;;
48524;SDS011;34316;51.514;-0.178;2022-11-02T13:12:57;17.60;;;5.22;;
48524;SDS011;34316;51.514;-0.178;2022-11-02T13:15:00;20.48;;;4.70;;
48524;SDS011;34316;51.514;-0.178;2022-11-02T13:17:26;13.65;;;5.18;;
48524;SDS011;34316;51.514;-0.178;2022-11-02T13:19:35;15.02;;;5.13;;
48524;SDS011;34316;51.514;-0.178;2022-11-02T13:21:41;16.02;;;5.07;;
48524;SDS011;34316;51.514;-0.178;2022-11-02T13:23:52;15.40;;;4.85;;
48524;SDS011;34316;51.514;-0.178;2022-11-02T13:25:57;16.95;;;5.28;;
48524;SDS011;34316;51.514;-0.178;2022-11-02T13:28:05;21.60;;;5.43;;
48524;SDS011;34316;51.514;-0.178;2022-11-02T13:30:14;17.02;;;4.97;;
48524;SDS011;34316;51.514;-0.178;2022-11-02T13:34:34;19.95;;;5.07;;
48524;SDS011;34316;51.514;-0.178;2022-11-02T13:36:38;18.05;;;6.40;;
48524;SDS011;34316;51.514;-0.178;2022-11-02T13:38:45;18.55;;;5.15;;
48524;SDS011;34316;51.514;-0.178;2022-11-02T13:43:40;19.98;;;5.20;;